sensor_id;sensor_type;location;lat;lon;timestamp;temperature;humidity
9925;DHT22;5001;51.674;7.868;2022-10-16T00:01:28;14.00;1.00
9925;DHT22;5001;51.674;7.868;2022-10-16T00:03:56;14.00;1.00
9925;DHT22;5001;51.674;7.868;2022-10-16T00:06:24;14.00;1.00
9925;DHT22;5001;51.674;7.868;2022-10-16T00:08:52;14.00;1.00
9925;DHT22;5001;51.674;7.868;2022-10-16T00:11:25;14.00;1.00
9925;DHT22;5001;51.674;7.868;2022-10-16T00:13:58;14.00;1.00
9925;DHT22;5001;51.674;7.868;2022-10-16T00:16:27;14.00;1.00
9925;DHT22;5001;51.674;7.868;2022-10-16T00:18:57;13.90;1.00
9925;DHT22;5001;51.674;7.868;2022-10-16T00:21:26;13.90;1.00
9925;DHT22;5001;51.674;7.868;2022-10-16T00:23:59;13.80;1.00
9925;DHT22;5001;51.674;7.868;2022-10-16T00:26:28;13.90;1.00
9925;DHT22;5001;51.674;7.868;2022-10-16T00:28:55;13.90;1.00
9925;DHT22;5001;51.674;7.868;2022-10-16T00:31:23;13.90;1.00
9925;DHT22;5001;51.674;7.868;2022-10-16T00:33:51;13.80;1.00
9925;DHT22;5001;51.674;7.868;2022-10-16T00:36:21;13.80;1.00
9925;DHT22;5001;51.674;7.868;2022-10-16T00:38:56;13.80;1.00
9925;DHT22;5001;51.674;7.868;2022-10-16T00:41:24;13.80;1.00
9925;DHT22;5001;51.674;7.868;2022-10-16T00:43:56;13.80;1.00
9925;DHT22;5001;51.674;7.868;2022-10-16T00:46:26;13.70;1.00
9925;DHT22;5001;51.674;7.868;2022-10-16T00:49:20;13.80;1.00
9925;DHT22;5001;51.674;7.868;2022-10-16T00:51:49;13.80;1.00
9925;DHT22;5001;51.674;7.868;2022-10-16T00:54:29;13.80;1.00
9925;DHT22;5001;51.674;7.868;2022-10-16T00:56:58;13.80;1.00
9925;DHT22;5001;51.674;7.868;2022-10-16T00:59:29;13.70;1.00
9925;DHT22;5001;51.674;7.868;2022-10-16T01:01:57;13.80;1.00
9925;DHT22;5001;51.674;7.868;2022-10-16T01:04:25;13.70;1.00
9925;DHT22;5001;51.674;7.868;2022-10-16T01:07:03;13.70;1.00
9925;DHT22;5001;51.674;7.868;2022-10-16T01:12:33;13.70;1.00
9925;DHT22;5001;51.674;7.868;2022-10-16T01:15:34;13.70;1.00
9925;DHT22;5001;51.674;7.868;2022-10-16T01:18:16;13.70;1.00
9925;DHT22;5001;51.674;7.868;2022-10-16T01:29:42;13.60;99.90
9925;DHT22;5001;51.674;7.868;2022-10-16T01:35:14;13.60;1.00
9925;DHT22;5001;51.674;7.868;2022-10-16T01:37:46;13.70;99.90
9925;DHT22;5001;51.674;7.868;2022-10-16T01:40:17;13.80;99.90
9925;DHT22;5001;51.674;7.868;2022-10-16T01:42:49;13.80;99.90
9925;DHT22;5001;51.674;7.868;2022-10-16T01:45:19;13.70;99.90
9925;DHT22;5001;51.674;7.868;2022-10-16T01:47:48;13.70;99.90
9925;DHT22;5001;51.674;7.868;2022-10-16T01:50:18;13.70;99.90
9925;DHT22;5001;51.674;7.868;2022-10-16T01:52:51;13.80;99.90
9925;DHT22;5001;51.674;7.868;2022-10-16T01:55:24;13.70;99.90
9925;DHT22;5001;51.674;7.868;2022-10-16T01:57:54;13.70;99.90
9925;DHT22;5001;51.674;7.868;2022-10-16T02:00:22;13.80;59.00
9925;DHT22;5001;51.674;7.868;2022-10-16T02:02:53;13.70;10.30
9925;DHT22;5001;51.674;7.868;2022-10-16T02:05:50;13.80;1.00
9925;DHT22;5001;51.674;7.868;2022-10-16T02:08:19;13.90;1.00
9925;DHT22;5001;51.674;7.868;2022-10-16T02:10:46;13.80;1.00
9925;DHT22;5001;51.674;7.868;2022-10-16T02:13:55;13.80;1.00
9925;DHT22;5001;51.674;7.868;2022-10-16T02:16:19;13.80;1.00
9925;DHT22;5001;51.674;7.868;2022-10-16T02:18:47;13.70;1.00
9925;DHT22;5001;51.674;7.868;2022-10-16T02:21:26;13.60;1.00
9925;DHT22;5001;51.674;7.868;2022-10-16T02:23:58;13.60;32.50
9925;DHT22;5001;51.674;7.868;2022-10-16T02:29:14;13.60;85.90
9925;DHT22;5001;51.674;7.868;2022-10-16T02:31:45;13.60;39.60
9925;DHT22;5001;51.674;7.868;2022-10-16T02:34:14;13.60;1.00
9925;DHT22;5001;51.674;7.868;2022-10-16T02:36:43;13.60;99.90
9925;DHT22;5001;51.674;7.868;2022-10-16T02:39:11;13.60;16.20
9925;DHT22;5001;51.674;7.868;2022-10-16T02:41:38;13.60;9.90
9925;DHT22;5001;51.674;7.868;2022-10-16T02:44:05;13.60;61.60
9925;DHT22;5001;51.674;7.868;2022-10-16T02:46:32;13.50;99.90
9925;DHT22;5001;51.674;7.868;2022-10-16T02:48:59;13.60;64.60
9925;DHT22;5001;51.674;7.868;2022-10-16T02:51:26;13.60;99.90
9925;DHT22;5001;51.674;7.868;2022-10-16T02:53:53;13.60;99.90
9925;DHT22;5001;51.674;7.868;2022-10-16T02:56:20;13.60;50.20
9925;DHT22;5001;51.674;7.868;2022-10-16T02:58:47;13.70;1.00
9925;DHT22;5001;51.674;7.868;2022-10-16T03:01:14;13.80;1.00
9925;DHT22;5001;51.674;7.868;2022-10-16T03:03:43;13.90;1.00
9925;DHT22;5001;51.674;7.868;2022-10-16T03:06:11;13.90;1.00
9925;DHT22;5001;51.674;7.868;2022-10-16T03:08:38;13.90;1.00
9925;DHT22;5001;51.674;7.868;2022-10-16T03:11:05;13.90;1.00
9925;DHT22;5001;51.674;7.868;2022-10-16T03:13:32;13.90;1.00
9925;DHT22;5001;51.674;7.868;2022-10-16T03:15:59;14.00;1.00
9925;DHT22;5001;51.674;7.868;2022-10-16T03:18:26;14.00;1.00
9925;DHT22;5001;51.674;7.868;2022-10-16T03:20:53;14.10;99.90
9925;DHT22;5001;51.674;7.868;2022-10-16T03:23:20;14.10;99.90
9925;DHT22;5001;51.674;7.868;2022-10-16T03:25:47;14.10;99.90
9925;DHT22;5001;51.674;7.868;2022-10-16T03:28:14;14.10;99.90
9925;DHT22;5001;51.674;7.868;2022-10-16T03:30:43;14.20;99.90
9925;DHT22;5001;51.674;7.868;2022-10-16T03:33:10;14.20;99.90
9925;DHT22;5001;51.674;7.868;2022-10-16T03:35:37;14.20;99.90
9925;DHT22;5001;51.674;7.868;2022-10-16T03:38:04;14.20;99.90
9925;DHT22;5001;51.674;7.868;2022-10-16T03:40:31;14.20;99.90
9925;DHT22;5001;51.674;7.868;2022-10-16T03:43:01;14.20;99.90
9925;DHT22;5001;51.674;7.868;2022-10-16T03:45:28;14.20;99.90
9925;DHT22;5001;51.674;7.868;2022-10-16T03:47:55;14.20;99.90
9925;DHT22;5001;51.674;7.868;2022-10-16T03:50:22;14.20;96.50
9925;DHT22;5001;51.674;7.868;2022-10-16T03:52:49;14.20;63.50
9925;DHT22;5001;51.674;7.868;2022-10-16T03:55:16;14.20;99.90
9925;DHT22;5001;51.674;7.868;2022-10-16T03:57:43;14.20;10.60
9925;DHT22;5001;51.674;7.868;2022-10-16T04:00:11;14.20;7.70
9925;DHT22;5001;51.674;7.868;2022-10-16T04:02:39;14.30;1.00
9925;DHT22;5001;51.674;7.868;2022-10-16T04:05:06;14.30;1.00
9925;DHT22;5001;51.674;7.868;2022-10-16T04:07:33;14.30;1.00
9925;DHT22;5001;51.674;7.868;2022-10-16T04:10:00;14.40;1.00
9925;DHT22;5001;51.674;7.868;2022-10-16T04:12:27;14.30;1.00
9925;DHT22;5001;51.674;7.868;2022-10-16T04:14:54;14.30;1.00
9925;DHT22;5001;51.674;7.868;2022-10-16T04:17:22;14.30;1.00
9925;DHT22;5001;51.674;7.868;2022-10-16T04:19:49;14.30;1.00
9925;DHT22;5001;51.674;7.868;2022-10-16T04:22:17;14.30;1.00
9925;DHT22;5001;51.674;7.868;2022-10-16T04:24:44;14.20;1.00
9925;DHT22;5001;51.674;7.868;2022-10-16T04:27:10;14.20;1.00
9925;DHT22;5001;51.674;7.868;2022-10-16T04:29:37;14.10;57.00
9925;DHT22;5001;51.674;7.868;2022-10-16T04:32:04;13.90;99.90
9925;DHT22;5001;51.674;7.868;2022-10-16T04:34:31;13.90;99.90
9925;DHT22;5001;51.674;7.868;2022-10-16T04:36:58;13.80;99.90
9925;DHT22;5001;51.674;7.868;2022-10-16T04:39:25;13.70;99.90
9925;DHT22;5001;51.674;7.868;2022-10-16T04:41:52;13.70;99.90
9925;DHT22;5001;51.674;7.868;2022-10-16T04:44:19;13.70;1.00
9925;DHT22;5001;51.674;7.868;2022-10-16T04:46:46;13.70;99.90
9925;DHT22;5001;51.674;7.868;2022-10-16T04:49:13;13.70;99.90
9925;DHT22;5001;51.674;7.868;2022-10-16T04:51:40;13.70;99.90
9925;DHT22;5001;51.674;7.868;2022-10-16T04:54:08;13.70;99.90
9925;DHT22;5001;51.674;7.868;2022-10-16T04:56:36;13.50;1.00
9925;DHT22;5001;51.674;7.868;2022-10-16T04:59:09;13.60;1.00
9925;DHT22;5001;51.674;7.868;2022-10-16T05:01:36;13.60;1.00
9925;DHT22;5001;51.674;7.868;2022-10-16T05:04:03;13.60;1.00
9925;DHT22;5001;51.674;7.868;2022-10-16T05:06:31;13.60;1.00
9925;DHT22;5001;51.674;7.868;2022-10-16T05:08:58;13.50;1.00
9925;DHT22;5001;51.674;7.868;2022-10-16T05:11:24;13.50;1.00
9925;DHT22;5001;51.674;7.868;2022-10-16T05:13:51;13.50;1.00
9925;DHT22;5001;51.674;7.868;2022-10-16T05:16:21;13.40;1.00
9925;DHT22;5001;51.674;7.868;2022-10-16T05:18:48;13.40;1.00
9925;DHT22;5001;51.674;7.868;2022-10-16T05:21:21;13.40;99.90
9925;DHT22;5001;51.674;7.868;2022-10-16T05:23:48;13.40;99.90
9925;DHT22;5001;51.674;7.868;2022-10-16T05:26:15;13.30;1.00
9925;DHT22;5001;51.674;7.868;2022-10-16T05:28:42;13.30;1.00
9925;DHT22;5001;51.674;7.868;2022-10-16T05:31:10;13.30;1.00
9925;DHT22;5001;51.674;7.868;2022-10-16T05:33:37;13.40;99.90
9925;DHT22;5001;51.674;7.868;2022-10-16T05:36:06;13.40;99.90
9925;DHT22;5001;51.674;7.868;2022-10-16T05:38:35;13.50;99.90
9925;DHT22;5001;51.674;7.868;2022-10-16T05:41:02;13.50;99.90
9925;DHT22;5001;51.674;7.868;2022-10-16T05:43:30;13.50;99.90
9925;DHT22;5001;51.674;7.868;2022-10-16T05:46:00;13.60;99.90
9925;DHT22;5001;51.674;7.868;2022-10-16T05:48:27;13.60;99.90
9925;DHT22;5001;51.674;7.868;2022-10-16T05:51:03;13.50;99.90
9925;DHT22;5001;51.674;7.868;2022-10-16T05:53:33;13.40;99.90
9925;DHT22;5001;51.674;7.868;2022-10-16T05:56:00;13.40;99.90
9925;DHT22;5001;51.674;7.868;2022-10-16T05:58:35;13.40;99.90
9925;DHT22;5001;51.674;7.868;2022-10-16T06:01:08;13.50;99.90
9925;DHT22;5001;51.674;7.868;2022-10-16T06:03:36;13.50;99.90
9925;DHT22;5001;51.674;7.868;2022-10-16T06:06:13;13.50;99.90
9925;DHT22;5001;51.674;7.868;2022-10-16T06:08:42;13.60;99.90
9925;DHT22;5001;51.674;7.868;2022-10-16T06:11:13;13.70;99.90
9925;DHT22;5001;51.674;7.868;2022-10-16T06:13:40;13.70;72.50
9925;DHT22;5001;51.674;7.868;2022-10-16T06:16:12;13.60;96.90
9925;DHT22;5001;51.674;7.868;2022-10-16T06:18:39;13.60;99.90
9925;DHT22;5001;51.674;7.868;2022-10-16T06:21:08;13.70;99.90
9925;DHT22;5001;51.674;7.868;2022-10-16T06:23:35;13.80;73.90
9925;DHT22;5001;51.674;7.868;2022-10-16T06:26:22;13.80;10.40
9925;DHT22;5001;51.674;7.868;2022-10-16T06:28:50;13.90;1.00
9925;DHT22;5001;51.674;7.868;2022-10-16T06:31:17;14.10;1.00
9925;DHT22;5001;51.674;7.868;2022-10-16T06:33:44;14.30;1.00
9925;DHT22;5001;51.674;7.868;2022-10-16T06:36:15;14.30;1.00
9925;DHT22;5001;51.674;7.868;2022-10-16T06:38:44;14.30;1.00
9925;DHT22;5001;51.674;7.868;2022-10-16T06:41:16;14.30;1.00
9925;DHT22;5001;51.674;7.868;2022-10-16T06:43:43;14.30;1.00
9925;DHT22;5001;51.674;7.868;2022-10-16T06:46:13;14.30;1.00
9925;DHT22;5001;51.674;7.868;2022-10-16T06:48:40;14.30;1.00
9925;DHT22;5001;51.674;7.868;2022-10-16T06:51:16;14.40;1.00
9925;DHT22;5001;51.674;7.868;2022-10-16T06:53:46;14.50;1.00
9925;DHT22;5001;51.674;7.868;2022-10-16T06:56:28;14.50;1.00
9925;DHT22;5001;51.674;7.868;2022-10-16T06:58:58;14.50;1.00
9925;DHT22;5001;51.674;7.868;2022-10-16T07:01:26;14.60;1.00
9925;DHT22;5001;51.674;7.868;2022-10-16T07:03:53;14.70;1.00
9925;DHT22;5001;51.674;7.868;2022-10-16T07:06:22;14.80;1.00
9925;DHT22;5001;51.674;7.868;2022-10-16T07:08:50;14.90;1.00
9925;DHT22;5001;51.674;7.868;2022-10-16T07:11:19;14.90;99.90
9925;DHT22;5001;51.674;7.868;2022-10-16T07:13:48;14.90;99.90
9925;DHT22;5001;51.674;7.868;2022-10-16T07:16:25;14.90;99.90
9925;DHT22;5001;51.674;7.868;2022-10-16T07:19:00;15.00;99.90
9925;DHT22;5001;51.674;7.868;2022-10-16T07:21:30;15.00;99.90
9925;DHT22;5001;51.674;7.868;2022-10-16T07:23:59;15.10;99.90
9925;DHT22;5001;51.674;7.868;2022-10-16T07:26:31;15.20;99.90
9925;DHT22;5001;51.674;7.868;2022-10-16T07:28:58;15.30;99.90
9925;DHT22;5001;51.674;7.868;2022-10-16T07:31:26;15.50;99.90
9925;DHT22;5001;51.674;7.868;2022-10-16T07:33:53;15.50;99.90
9925;DHT22;5001;51.674;7.868;2022-10-16T07:36:21;15.60;99.90
9925;DHT22;5001;51.674;7.868;2022-10-16T07:38:48;15.80;99.90
9925;DHT22;5001;51.674;7.868;2022-10-16T07:41:17;15.80;99.90
9925;DHT22;5001;51.674;7.868;2022-10-16T07:43:49;15.70;99.90
9925;DHT22;5001;51.674;7.868;2022-10-16T07:46:17;15.50;99.90
9925;DHT22;5001;51.674;7.868;2022-10-16T07:48:45;15.50;99.90
9925;DHT22;5001;51.674;7.868;2022-10-16T07:51:21;15.30;99.90
9925;DHT22;5001;51.674;7.868;2022-10-16T07:53:49;15.30;99.90
9925;DHT22;5001;51.674;7.868;2022-10-16T07:56:17;15.30;99.90
9925;DHT22;5001;51.674;7.868;2022-10-16T07:58:44;15.40;99.90
9925;DHT22;5001;51.674;7.868;2022-10-16T08:01:14;15.40;99.90
9925;DHT22;5001;51.674;7.868;2022-10-16T08:03:51;15.60;99.90
9925;DHT22;5001;51.674;7.868;2022-10-16T08:06:19;15.80;99.90
9925;DHT22;5001;51.674;7.868;2022-10-16T08:08:53;16.00;99.90
9925;DHT22;5001;51.674;7.868;2022-10-16T08:11:20;16.10;99.90
9925;DHT22;5001;51.674;7.868;2022-10-16T08:13:47;16.00;99.90
9925;DHT22;5001;51.674;7.868;2022-10-16T08:16:14;15.80;99.90
9925;DHT22;5001;51.674;7.868;2022-10-16T08:18:41;15.70;99.90
9925;DHT22;5001;51.674;7.868;2022-10-16T08:21:13;15.70;99.90
9925;DHT22;5001;51.674;7.868;2022-10-16T08:23:47;15.70;99.90
9925;DHT22;5001;51.674;7.868;2022-10-16T08:26:22;15.80;99.90
9925;DHT22;5001;51.674;7.868;2022-10-16T08:28:50;15.90;99.90
9925;DHT22;5001;51.674;7.868;2022-10-16T08:31:18;15.90;99.90
9925;DHT22;5001;51.674;7.868;2022-10-16T08:33:45;16.00;99.90
9925;DHT22;5001;51.674;7.868;2022-10-16T08:36:16;16.00;99.90
9925;DHT22;5001;51.674;7.868;2022-10-16T08:38:43;16.20;99.90
9925;DHT22;5001;51.674;7.868;2022-10-16T08:49:16;20.70;1.00
9925;DHT22;5001;51.674;7.868;2022-10-16T08:51:44;25.50;1.00
9925;DHT22;5001;51.674;7.868;2022-10-16T08:56:45;29.40;1.00
9925;DHT22;5001;51.674;7.868;2022-10-16T08:59:14;28.00;1.00
9925;DHT22;5001;51.674;7.868;2022-10-16T09:01:47;28.30;1.00
9925;DHT22;5001;51.674;7.868;2022-10-16T09:13:37;31.10;1.00
9925;DHT22;5001;51.674;7.868;2022-10-16T09:21:30;32.10;1.00
9925;DHT22;5001;51.674;7.868;2022-10-16T09:24:17;31.90;1.00
9925;DHT22;5001;51.674;7.868;2022-10-16T09:26:46;34.80;1.00
9925;DHT22;5001;51.674;7.868;2022-10-16T09:29:18;34.00;1.00
9925;DHT22;5001;51.674;7.868;2022-10-16T09:31:47;33.30;1.00
9925;DHT22;5001;51.674;7.868;2022-10-16T09:34:35;33.20;1.00
9925;DHT22;5001;51.674;7.868;2022-10-16T09:37:05;29.80;1.00
9925;DHT22;5001;51.674;7.868;2022-10-16T09:39:50;30.50;1.00
9925;DHT22;5001;51.674;7.868;2022-10-16T09:42:26;32.70;1.00
9925;DHT22;5001;51.674;7.868;2022-10-16T09:44:54;33.00;1.00
9925;DHT22;5001;51.674;7.868;2022-10-16T09:47:23;34.00;1.00
9925;DHT22;5001;51.674;7.868;2022-10-16T09:49:55;34.20;1.00
9925;DHT22;5001;51.674;7.868;2022-10-16T09:52:24;35.70;1.00
9925;DHT22;5001;51.674;7.868;2022-10-16T09:54:59;35.20;1.00
9925;DHT22;5001;51.674;7.868;2022-10-16T09:57:26;33.70;1.00
9925;DHT22;5001;51.674;7.868;2022-10-16T09:59:56;29.90;1.00
9925;DHT22;5001;51.674;7.868;2022-10-16T10:02:43;31.10;1.00
9925;DHT22;5001;51.674;7.868;2022-10-16T10:05:27;32.70;1.00
9925;DHT22;5001;51.674;7.868;2022-10-16T10:08:02;34.30;1.00
9925;DHT22;5001;51.674;7.868;2022-10-16T10:10:41;35.70;1.00
9925;DHT22;5001;51.674;7.868;2022-10-16T10:13:23;36.90;1.00
9925;DHT22;5001;51.674;7.868;2022-10-16T10:15:53;35.70;1.00
9925;DHT22;5001;51.674;7.868;2022-10-16T10:18:21;32.90;1.00
9925;DHT22;5001;51.674;7.868;2022-10-16T10:21:01;27.90;1.00
9925;DHT22;5001;51.674;7.868;2022-10-16T10:23:29;25.50;1.00
9925;DHT22;5001;51.674;7.868;2022-10-16T10:26:18;26.20;1.00
9925;DHT22;5001;51.674;7.868;2022-10-16T10:29:17;30.30;1.00
9925;DHT22;5001;51.674;7.868;2022-10-16T10:32:10;27.00;1.00
9925;DHT22;5001;51.674;7.868;2022-10-16T10:40:49;34.50;1.00
9925;DHT22;5001;51.674;7.868;2022-10-16T10:46:09;35.20;1.00
9925;DHT22;5001;51.674;7.868;2022-10-16T10:57:10;28.70;1.00
9925;DHT22;5001;51.674;7.868;2022-10-16T11:02:39;28.50;1.00
9925;DHT22;5001;51.674;7.868;2022-10-16T11:07:58;31.50;1.00
9925;DHT22;5001;51.674;7.868;2022-10-16T11:13:39;31.50;1.00
9925;DHT22;5001;51.674;7.868;2022-10-16T11:16:30;30.50;1.00
9925;DHT22;5001;51.674;7.868;2022-10-16T11:22:04;30.30;1.00
9925;DHT22;5001;51.674;7.868;2022-10-16T11:27:42;27.00;1.00
9925;DHT22;5001;51.674;7.868;2022-10-16T11:30:20;27.60;1.00
9925;DHT22;5001;51.674;7.868;2022-10-16T11:35:48;28.20;1.00
9925;DHT22;5001;51.674;7.868;2022-10-16T11:38:34;27.40;1.00
9925;DHT22;5001;51.674;7.868;2022-10-16T11:41:28;28.70;1.00
9925;DHT22;5001;51.674;7.868;2022-10-16T11:44:02;29.20;1.00
9925;DHT22;5001;51.674;7.868;2022-10-16T11:46:32;28.60;1.00
9925;DHT22;5001;51.674;7.868;2022-10-16T11:49:26;27.10;1.00
9925;DHT22;5001;51.674;7.868;2022-10-16T11:54:52;25.60;1.00
9925;DHT22;5001;51.674;7.868;2022-10-16T11:57:33;25.40;1.00
9925;DHT22;5001;51.674;7.868;2022-10-16T12:00:22;24.00;1.00
9925;DHT22;5001;51.674;7.868;2022-10-16T12:03:23;24.00;1.00
9925;DHT22;5001;51.674;7.868;2022-10-16T12:06:30;24.60;1.00
9925;DHT22;5001;51.674;7.868;2022-10-16T12:08:59;26.00;1.00
9925;DHT22;5001;51.674;7.868;2022-10-16T12:11:38;25.70;1.00
9925;DHT22;5001;51.674;7.868;2022-10-16T12:16:56;24.60;1.00
9925;DHT22;5001;51.674;7.868;2022-10-16T12:19:26;24.50;1.00
9925;DHT22;5001;51.674;7.868;2022-10-16T12:21:56;24.30;1.00
9925;DHT22;5001;51.674;7.868;2022-10-16T12:24:36;24.00;1.00
9925;DHT22;5001;51.674;7.868;2022-10-16T12:27:06;24.20;1.00
9925;DHT22;5001;51.674;7.868;2022-10-16T12:29:45;23.20;1.00
9925;DHT22;5001;51.674;7.868;2022-10-16T12:32:35;24.00;1.00
9925;DHT22;5001;51.674;7.868;2022-10-16T12:35:21;23.30;1.00
9925;DHT22;5001;51.674;7.868;2022-10-16T12:37:49;23.60;1.00
9925;DHT22;5001;51.674;7.868;2022-10-16T12:40:30;24.20;1.00
9925;DHT22;5001;51.674;7.868;2022-10-16T12:42:57;23.60;1.00
9925;DHT22;5001;51.674;7.868;2022-10-16T12:45:31;23.10;1.00
9925;DHT22;5001;51.674;7.868;2022-10-16T12:48:01;22.40;1.00
9925;DHT22;5001;51.674;7.868;2022-10-16T12:50:37;22.70;1.00
9925;DHT22;5001;51.674;7.868;2022-10-16T12:53:18;23.10;1.00
9925;DHT22;5001;51.674;7.868;2022-10-16T13:01:42;22.80;1.00
9925;DHT22;5001;51.674;7.868;2022-10-16T13:04:27;22.80;1.00
9925;DHT22;5001;51.674;7.868;2022-10-16T13:12:16;22.60;1.00
9925;DHT22;5001;51.674;7.868;2022-10-16T13:15:00;22.30;1.00
9925;DHT22;5001;51.674;7.868;2022-10-16T13:20:36;21.70;1.00
9925;DHT22;5001;51.674;7.868;2022-10-16T13:23:15;21.20;1.00
9925;DHT22;5001;51.674;7.868;2022-10-16T13:26:06;21.00;1.00
9925;DHT22;5001;51.674;7.868;2022-10-16T13:28:37;21.10;1.00
9925;DHT22;5001;51.674;7.868;2022-10-16T13:31:05;21.50;1.00
9925;DHT22;5001;51.674;7.868;2022-10-16T13:33:39;21.50;1.00
9925;DHT22;5001;51.674;7.868;2022-10-16T13:36:22;21.70;1.00
9925;DHT22;5001;51.674;7.868;2022-10-16T13:39:15;21.60;1.00
9925;DHT22;5001;51.674;7.868;2022-10-16T13:41:45;21.20;1.00
9925;DHT22;5001;51.674;7.868;2022-10-16T13:44:21;21.00;1.00
9925;DHT22;5001;51.674;7.868;2022-10-16T13:47:00;21.30;1.00
9925;DHT22;5001;51.674;7.868;2022-10-16T13:49:28;21.40;1.00
9925;DHT22;5001;51.674;7.868;2022-10-16T13:51:58;21.10;1.00
9925;DHT22;5001;51.674;7.868;2022-10-16T13:54:27;20.70;1.00
9925;DHT22;5001;51.674;7.868;2022-10-16T13:56:55;20.70;1.00
9925;DHT22;5001;51.674;7.868;2022-10-16T13:59:36;20.90;1.00
9925;DHT22;5001;51.674;7.868;2022-10-16T14:02:18;20.80;1.00
9925;DHT22;5001;51.674;7.868;2022-10-16T14:04:46;20.70;1.00
9925;DHT22;5001;51.674;7.868;2022-10-16T14:07:24;20.60;1.00
9925;DHT22;5001;51.674;7.868;2022-10-16T14:09:53;20.50;1.00
9925;DHT22;5001;51.674;7.868;2022-10-16T14:12:22;20.60;1.00
9925;DHT22;5001;51.674;7.868;2022-10-16T14:14:55;20.60;1.00
9925;DHT22;5001;51.674;7.868;2022-10-16T14:17:31;20.50;1.00
9925;DHT22;5001;51.674;7.868;2022-10-16T14:20:00;20.50;1.00
9925;DHT22;5001;51.674;7.868;2022-10-16T14:22:33;20.40;1.00
9925;DHT22;5001;51.674;7.868;2022-10-16T14:25:02;20.20;1.00
9925;DHT22;5001;51.674;7.868;2022-10-16T14:27:40;20.20;1.00
9925;DHT22;5001;51.674;7.868;2022-10-16T14:30:21;20.00;1.00
9925;DHT22;5001;51.674;7.868;2022-10-16T14:33:06;19.90;1.00
9925;DHT22;5001;51.674;7.868;2022-10-16T14:35:36;19.90;1.00
9925;DHT22;5001;51.674;7.868;2022-10-16T14:38:05;19.90;1.00
9925;DHT22;5001;51.674;7.868;2022-10-16T14:40:35;20.10;1.00
9925;DHT22;5001;51.674;7.868;2022-10-16T14:43:04;20.30;1.00
9925;DHT22;5001;51.674;7.868;2022-10-16T14:45:34;20.50;1.00
9925;DHT22;5001;51.674;7.868;2022-10-16T14:48:05;20.60;1.00
9925;DHT22;5001;51.674;7.868;2022-10-16T14:50:34;20.70;1.00
9925;DHT22;5001;51.674;7.868;2022-10-16T14:53:01;20.60;1.00
9925;DHT22;5001;51.674;7.868;2022-10-16T14:55:28;20.50;1.00
9925;DHT22;5001;51.674;7.868;2022-10-16T14:57:55;20.50;1.00
9925;DHT22;5001;51.674;7.868;2022-10-16T15:00:26;20.30;1.00
9925;DHT22;5001;51.674;7.868;2022-10-16T15:02:53;20.10;1.00
9925;DHT22;5001;51.674;7.868;2022-10-16T15:05:25;19.90;1.00
9925;DHT22;5001;51.674;7.868;2022-10-16T15:07:54;19.70;1.00
9925;DHT22;5001;51.674;7.868;2022-10-16T15:10:23;19.60;1.00
9925;DHT22;5001;51.674;7.868;2022-10-16T15:12:51;19.60;1.00
9925;DHT22;5001;51.674;7.868;2022-10-16T15:17:52;19.60;1.00
9925;DHT22;5001;51.674;7.868;2022-10-16T15:20:20;19.70;1.00
9925;DHT22;5001;51.674;7.868;2022-10-16T15:22:47;20.00;1.00
9925;DHT22;5001;51.674;7.868;2022-10-16T15:25:37;20.30;1.00
9925;DHT22;5001;51.674;7.868;2022-10-16T15:28:06;20.50;1.00
9925;DHT22;5001;51.674;7.868;2022-10-16T15:30:34;20.60;1.00
9925;DHT22;5001;51.674;7.868;2022-10-16T15:33:02;20.50;1.00
9925;DHT22;5001;51.674;7.868;2022-10-16T15:35:29;20.40;1.00
9925;DHT22;5001;51.674;7.868;2022-10-16T15:37:57;20.20;1.00
9925;DHT22;5001;51.674;7.868;2022-10-16T15:40:24;20.10;1.00
9925;DHT22;5001;51.674;7.868;2022-10-16T15:42:51;20.00;1.00
9925;DHT22;5001;51.674;7.868;2022-10-16T15:45:18;19.80;1.00
9925;DHT22;5001;51.674;7.868;2022-10-16T15:47:46;19.70;1.00
9925;DHT22;5001;51.674;7.868;2022-10-16T15:50:14;19.40;1.00
9925;DHT22;5001;51.674;7.868;2022-10-16T15:52:42;19.30;1.00
9925;DHT22;5001;51.674;7.868;2022-10-16T15:55:11;19.20;1.00
9925;DHT22;5001;51.674;7.868;2022-10-16T15:57:39;19.20;1.00
9925;DHT22;5001;51.674;7.868;2022-10-16T16:00:16;19.10;1.00
9925;DHT22;5001;51.674;7.868;2022-10-16T16:02:50;19.10;1.00
9925;DHT22;5001;51.674;7.868;2022-10-16T16:05:18;19.10;1.00
9925;DHT22;5001;51.674;7.868;2022-10-16T16:07:45;19.10;1.00
9925;DHT22;5001;51.674;7.868;2022-10-16T16:10:13;19.00;1.00
9925;DHT22;5001;51.674;7.868;2022-10-16T16:12:40;19.00;1.00
9925;DHT22;5001;51.674;7.868;2022-10-16T16:15:13;19.00;1.00
9925;DHT22;5001;51.674;7.868;2022-10-16T16:17:46;18.90;1.00
9925;DHT22;5001;51.674;7.868;2022-10-16T16:20:13;19.30;1.00
9925;DHT22;5001;51.674;7.868;2022-10-16T16:22:42;18.60;1.00
9925;DHT22;5001;51.674;7.868;2022-10-16T16:25:10;18.40;1.00
9925;DHT22;5001;51.674;7.868;2022-10-16T16:27:37;18.30;1.00
9925;DHT22;5001;51.674;7.868;2022-10-16T16:30:10;18.30;1.00
9925;DHT22;5001;51.674;7.868;2022-10-16T16:32:45;18.20;1.00
9925;DHT22;5001;51.674;7.868;2022-10-16T16:35:12;18.20;1.00
9925;DHT22;5001;51.674;7.868;2022-10-16T16:37:39;18.10;1.00
9925;DHT22;5001;51.674;7.868;2022-10-16T16:40:06;18.00;1.00
9925;DHT22;5001;51.674;7.868;2022-10-16T16:42:33;17.80;1.00
9925;DHT22;5001;51.674;7.868;2022-10-16T16:45:00;17.70;1.00
9925;DHT22;5001;51.674;7.868;2022-10-16T16:47:27;17.70;1.00
9925;DHT22;5001;51.674;7.868;2022-10-16T16:49:54;17.70;1.00
9925;DHT22;5001;51.674;7.868;2022-10-16T16:52:21;17.70;1.00
9925;DHT22;5001;51.674;7.868;2022-10-16T16:54:49;17.60;1.00
9925;DHT22;5001;51.674;7.868;2022-10-16T16:57:20;17.60;1.00
9925;DHT22;5001;51.674;7.868;2022-10-16T16:59:49;17.70;1.00
9925;DHT22;5001;51.674;7.868;2022-10-16T17:02:16;17.70;1.00
9925;DHT22;5001;51.674;7.868;2022-10-16T17:04:43;17.70;1.00
9925;DHT22;5001;51.674;7.868;2022-10-16T17:07:10;17.70;1.00
9925;DHT22;5001;51.674;7.868;2022-10-16T17:09:37;17.60;1.00
9925;DHT22;5001;51.674;7.868;2022-10-16T17:12:04;17.60;1.00
9925;DHT22;5001;51.674;7.868;2022-10-16T17:14:31;17.50;1.00
9925;DHT22;5001;51.674;7.868;2022-10-16T17:16:58;17.40;1.00
9925;DHT22;5001;51.674;7.868;2022-10-16T17:19:25;17.30;1.00
9925;DHT22;5001;51.674;7.868;2022-10-16T17:21:54;17.20;1.00
9925;DHT22;5001;51.674;7.868;2022-10-16T17:24:21;17.20;1.00
9925;DHT22;5001;51.674;7.868;2022-10-16T17:26:48;17.20;1.00
9925;DHT22;5001;51.674;7.868;2022-10-16T17:29:17;17.20;1.00
9925;DHT22;5001;51.674;7.868;2022-10-16T17:31:45;17.20;1.00
9925;DHT22;5001;51.674;7.868;2022-10-16T17:34:12;17.20;1.00
9925;DHT22;5001;51.674;7.868;2022-10-16T17:36:40;17.20;1.00
9925;DHT22;5001;51.674;7.868;2022-10-16T17:39:13;17.10;1.00
9925;DHT22;5001;51.674;7.868;2022-10-16T17:41:43;17.10;1.00
9925;DHT22;5001;51.674;7.868;2022-10-16T17:44:11;17.00;1.00
9925;DHT22;5001;51.674;7.868;2022-10-16T17:46:50;17.00;1.00
9925;DHT22;5001;51.674;7.868;2022-10-16T17:49:18;17.00;1.00
9925;DHT22;5001;51.674;7.868;2022-10-16T17:51:51;17.10;1.00
9925;DHT22;5001;51.674;7.868;2022-10-16T17:54:19;17.10;1.00
9925;DHT22;5001;51.674;7.868;2022-10-16T17:56:46;17.20;1.00
9925;DHT22;5001;51.674;7.868;2022-10-16T17:59:14;17.20;1.00
9925;DHT22;5001;51.674;7.868;2022-10-16T18:01:41;17.10;1.00
9925;DHT22;5001;51.674;7.868;2022-10-16T18:04:14;17.20;1.00
9925;DHT22;5001;51.674;7.868;2022-10-16T18:06:43;17.20;1.00
9925;DHT22;5001;51.674;7.868;2022-10-16T18:09:12;17.20;1.00
9925;DHT22;5001;51.674;7.868;2022-10-16T18:11:40;17.10;1.00
9925;DHT22;5001;51.674;7.868;2022-10-16T18:14:07;17.10;1.00
9925;DHT22;5001;51.674;7.868;2022-10-16T18:16:34;17.10;1.00
9925;DHT22;5001;51.674;7.868;2022-10-16T18:19:02;17.10;1.00
9925;DHT22;5001;51.674;7.868;2022-10-16T18:21:33;17.10;1.00